עמוד ראשי
METAR-TAF:

METAR-TAF

שדות תעופה :

Talkeetna, אלסקה, ארצות הברית

קו רוחב: 62-19-14N, קו אורך: 150-05-37W, גובה: 109מטר

תצפית מזג אוויר נוכחית

הדו"ח נערך לפני 20דקות, בשעה 09:46 UTC
רוח רגועה
טמפרטורת 11 צלסיוס
לחות 94%
לחץ 1016 hPa
ראות: 4.8קילומטר
מעט עננים בגובה 100רגל
מעונן בגובה 4200רגל
אד

METAR: PATK 120946Z AUTO 00000KT 3SM BR FEW001 OVC042 11/10 A3000 RMK AO2 T01110100 TSNO

זמן: 02:06 (10:06 UTC)

תחזית

הדו"ח נערך לפני 46דקות, בשעה 09:20 UTC
תחזית בתוקף מ 12 ב 09 UTC עד 13 ב 06 UTC
רוח 2קשר עם כיוונים משתנים
ראות: 0.8קילומטר
עננים בינוניים בגובה 100רגל
מעונן בגובה 4000רגל
ערפל
מ 12 ב 1600UTC
רוח 4קשר עם כיוונים משתנים
ראות: 10קילומטר
מעונן בגובה 4000רגל
מ 13 ב 0300UTC
רוח 5קשר עם כיוונים משתנים
ראות: 10קילומטר
עננים פזורים בגובה 3500רגל
מעונן בגובה 5000רגל
גשם קל,

TAF: PATK 120920Z 1209/1306 VRB02KT 1/2SM FG BKN001 OVC040 FM121600 VRB04KT P6SM OVC040 FM130300 VRB05KT P6SM -RA SCT035 OVC050

תצפיות ותחזיות מזג אוויר לגבי יותר מ- 4,000 שדות תעופה ברחבי העולם. דוחות METAR ו- TAF.

התחנות הזמינות מסומנות בנקודות צהובות ואדומות על גבי המפה.

העבר את העכבר לנקודה הצבעונית על מנת לראות את שם התחנה.

לאחר מכן, לחץ כדי לראות את תוכן ואת תחזיות מזג האוויר.

כדי לשנות את המפה: לחץ על הכפתורים הירוקים עם הפלוס השחור כדי להתקרב; על הכפתור הירוק עם המקף כדי להתרחק; או בחיצים הירוקים למפות סמוכות.


METAR-TAF: